Time;durP1;ratioP1;P1;durP2;ratioP2;P2;SDS_P1;SDS_P2;PMS_P1;PMS_P2;Temp;Humidity;BMP_temperature;BMP_pressure;BME280_temperature;BME280_humidity;BME280_pressure;Samples;Min_cycle;Max_cycle;Signal;HPM_P1;HPM_P2
2022/11/03 00:01:34;;;;;;;9.68;6.80;;;;;;;;;;4995711;28;20455;-66
2022/11/03 00:04:01;;;;;;;10.50;6.82;;;;;;;;;;4995608;28;20725;-66
2022/11/03 00:06:29;;;;;;;14.30;6.32;;;;;;;;;;4995790;28;20192;-66
2022/11/03 00:08:58;;;;;;;12.27;5.43;;;;;;;;;;4995852;28;20188;-67
2022/11/03 00:11:25;;;;;;;14.95;6.80;;;;;;;;;;4995522;28;20192;-66
2022/11/03 00:13:52;;;;;;;9.35;6.20;;;;;;;;;;4995462;28;20282;-66
2022/11/03 00:16:19;;;;;;;8.02;6.32;;;;;;;;;;4995392;28;20192;-67
2022/11/03 00:18:47;;;;;;;12.07;6.45;;;;;;;;;;4995263;28;20196;-66
2022/11/03 00:21:15;;;;;;;7.13;5.78;;;;;;;;;;4995652;28;20235;-67
2022/11/03 00:23:43;;;;;;;15.57;6.72;;;;;;;;;;4995455;28;20192;-66
2022/11/03 00:26:12;;;;;;;7.35;5.07;;;;;;;;;;4995190;28;20196;-66
2022/11/03 00:28:39;;;;;;;8.30;5.72;;;;;;;;;;4995128;28;20290;-66
2022/11/03 00:31:08;;;;;;;9.40;5.03;;;;;;;;;;4995105;28;20259;-66
2022/11/03 00:33:36;;;;;;;14.35;6.32;;;;;;;;;;4995014;28;20639;-67
2022/11/03 00:36:05;;;;;;;11.55;6.03;;;;;;;;;;4995086;28;20644;-66
2022/11/03 00:38:32;;;;;;;9.35;6.05;;;;;;;;;;4995086;28;20238;-67
2022/11/03 00:41:00;;;;;;;13.02;7.05;;;;;;;;;;4994319;28;20228;-66
2022/11/03 00:43:28;;;;;;;8.73;5.38;;;;;;;;;;4994829;28;20636;-67
2022/11/03 00:45:55;;;;;;;8.07;5.95;;;;;;;;;;4994762;28;20290;-66
2022/11/03 00:48:32;;;;;;;7.43;5.10;;;;;;;;;;4994929;28;20200;-66
2022/11/03 00:51:05;;;;;;;5.88;4.60;;;;;;;;;;4994917;28;20618;-66
2022/11/03 00:53:32;;;;;;;7.43;5.35;;;;;;;;;;4994991;28;20200;-66
2022/11/03 00:55:59;;;;;;;7.40;5.20;;;;;;;;;;4994672;28;20196;-66
2022/11/03 00:58:27;;;;;;;12.45;5.38;;;;;;;;;;4994516;28;20192;-66
2022/11/03 01:00:59;;;;;;;8.40;5.07;;;;;;;;;;4994716;28;20226;-66
2022/11/03 01:03:26;;;;;;;10.85;5.43;;;;;;;;;;4994685;28;20697;-67
2022/11/03 01:08:40;;;;;;;8.18;4.95;;;;;;;;;;4994387;28;20286;-66
2022/11/03 01:13:52;;;;;;;5.88;5.00;;;;;;;;;;4994362;28;20198;-66
2022/11/03 01:16:19;;;;;;;6.13;4.10;;;;;;;;;;4994365;28;20191;-66
2022/11/03 01:18:48;;;;;;;5.25;4.72;;;;;;;;;;4994303;28;20192;-66
2022/11/03 01:21:15;;;;;;;7.20;4.47;;;;;;;;;;4994060;28;20215;-66
2022/11/03 01:23:44;;;;;;;6.25;5.03;;;;;;;;;;4994336;28;20223;-66
2022/11/03 01:26:12;;;;;;;6.15;4.10;;;;;;;;;;4994099;28;20202;-66
2022/11/03 01:28:40;;;;;;;6.20;4.18;;;;;;;;;;4994001;28;20651;-66
2022/11/03 01:31:08;;;;;;;4.88;3.78;;;;;;;;;;4994100;28;20239;-66
2022/11/03 01:33:35;;;;;;;9.38;4.80;;;;;;;;;;4993880;28;20238;-66
2022/11/03 01:36:02;;;;;;;4.53;3.65;;;;;;;;;;4993871;28;20648;-66
2022/11/03 01:38:32;;;;;;;4.65;4.15;;;;;;;;;;4994077;28;20196;-66
2022/11/03 01:41:01;;;;;;;15.30;4.68;;;;;;;;;;4993900;28;20255;-66
2022/11/03 01:43:30;;;;;;;3.85;3.55;;;;;;;;;;4993626;28;20245;-66
2022/11/03 01:46:02;;;;;;;5.80;4.60;;;;;;;;;;4993850;28;20192;-66
2022/11/03 01:48:29;;;;;;;8.05;4.82;;;;;;;;;;4993739;28;20451;-66
2022/11/03 01:50:56;;;;;;;6.15;4.00;;;;;;;;;;4993883;28;20192;-67
2022/11/03 01:53:23;;;;;;;4.50;4.10;;;;;;;;;;4993157;28;20192;-66
2022/11/03 01:55:51;;;;;;;7.20;3.60;;;;;;;;;;4993822;28;20503;-66
2022/11/03 01:58:22;;;;;;;7.60;4.63;;;;;;;;;;4993770;28;20196;-66
2022/11/03 02:00:51;;;;;;;5.18;4.05;;;;;;;;;;4993429;28;20220;-66
2022/11/03 02:03:18;;;;;;;7.88;4.03;;;;;;;;;;4993725;28;20196;-66
2022/11/03 02:05:46;;;;;;;8.02;4.50;;;;;;;;;;4993687;28;20246;-66
2022/11/03 02:08:16;;;;;;;6.38;3.60;;;;;;;;;;4993453;28;20218;-66
2022/11/03 02:10:43;;;;;;;5.15;4.40;;;;;;;;;;4993395;28;20195;-66
2022/11/03 02:13:13;;;;;;;4.47;4.07;;;;;;;;;;4993404;28;20230;-66
2022/11/03 02:15:41;;;;;;;7.85;4.55;;;;;;;;;;4993602;28;20508;-67
2022/11/03 02:18:11;;;;;;;7.40;4.35;;;;;;;;;;4993399;28;20659;-66
2022/11/03 02:20:38;;;;;;;4.70;3.92;;;;;;;;;;4993226;28;20255;-66
2022/11/03 02:23:23;;;;;;;7.93;5.03;;;;;;;;;;4993474;28;20242;-66
2022/11/03 02:25:53;;;;;;;4.18;3.83;;;;;;;;;;4993084;28;20196;-66
2022/11/03 02:28:21;;;;;;;6.13;3.60;;;;;;;;;;4993467;28;20192;-66
2022/11/03 02:30:52;;;;;;;5.07;4.20;;;;;;;;;;4993480;28;20200;-66
2022/11/03 02:33:25;;;;;;;5.13;4.18;;;;;;;;;;4993230;28;20228;-66
2022/11/03 02:35:53;;;;;;;7.00;4.00;;;;;;;;;;4993352;28;20730;-66
2022/11/03 02:38:21;;;;;;;4.33;3.70;;;;;;;;;;4993099;28;20207;-66
2022/11/03 02:40:50;;;;;;;6.60;3.93;;;;;;;;;;4993295;28;20641;-66
2022/11/03 02:43:20;;;;;;;3.75;3.05;;;;;;;;;;4993091;28;20451;-66
2022/11/03 02:45:48;;;;;;;7.25;3.90;;;;;;;;;;4993153;28;20192;-66
2022/11/03 02:48:16;;;;;;;4.40;3.50;;;;;;;;;;4993183;28;20595;-66
2022/11/03 02:50:43;;;;;;;6.00;3.78;;;;;;;;;;4993072;28;20640;-66
2022/11/03 02:53:12;;;;;;;9.23;4.15;;;;;;;;;;4993054;28;20215;-66
2022/11/03 02:55:39;;;;;;;7.90;3.70;;;;;;;;;;4993295;28;20207;-66
2022/11/03 02:58:08;;;;;;;8.00;4.10;;;;;;;;;;4993295;28;20196;-66
2022/11/03 03:00:40;;;;;;;6.78;3.70;;;;;;;;;;4993073;28;20342;-66
2022/11/03 03:03:09;;;;;;;5.65;3.38;;;;;;;;;;4993774;28;20196;-66
2022/11/03 03:05:37;;;;;;;6.20;3.90;;;;;;;;;;4996592;28;20191;-66
2022/11/03 03:08:06;;;;;;;7.93;4.55;;;;;;;;;;4996810;28;20656;-66
2022/11/03 03:10:35;;;;;;;10.27;4.22;;;;;;;;;;4996711;28;20621;-66
2022/11/03 03:13:04;;;;;;;4.15;3.75;;;;;;;;;;4996608;28;20188;-66
2022/11/03 03:15:36;;;;;;;8.35;4.30;;;;;;;;;;4996523;28;20647;-66
2022/11/03 03:18:09;;;;;;;4.95;3.25;;;;;;;;;;4996476;28;20218;-66
2022/11/03 03:20:40;;;;;;;4.82;3.63;;;;;;;;;;4996573;28;20415;-66
2022/11/03 03:23:10;;;;;;;4.40;3.55;;;;;;;;;;4996612;28;20196;-66
2022/11/03 03:25:39;;;;;;;9.38;3.17;;;;;;;;;;4996452;28;20200;-66
2022/11/03 03:28:10;;;;;;;4.28;2.95;;;;;;;;;;4996280;28;20184;-66
2022/11/03 03:30:38;;;;;;;7.10;3.00;;;;;;;;;;4996295;28;20599;-66
2022/11/03 03:33:08;;;;;;;4.32;3.85;;;;;;;;;;4996321;28;20188;-67
2022/11/03 03:35:37;;;;;;;7.80;2.97;;;;;;;;;;4996314;28;20194;-66
2022/11/03 03:38:06;;;;;;;9.43;3.60;;;;;;;;;;4996204;28;20199;-66
2022/11/03 03:40:36;;;;;;;2.90;2.70;;;;;;;;;;4996020;28;20216;-66
2022/11/03 03:43:05;;;;;;;4.93;3.50;;;;;;;;;;4995845;28;20198;-66
2022/11/03 03:45:32;;;;;;;5.50;3.67;;;;;;;;;;4995950;28;20643;-66
2022/11/03 03:48:00;;;;;;;8.05;3.22;;;;;;;;;;4996078;28;20198;-66
2022/11/03 03:50:28;;;;;;;8.98;3.28;;;;;;;;;;4995883;28;20713;-67
2022/11/03 03:52:58;;;;;;;8.15;3.30;;;;;;;;;;4995789;28;20219;-67
2022/11/03 03:55:27;;;;;;;3.00;2.67;;;;;;;;;;4995706;28;20203;-67
2022/11/03 03:57:54;;;;;;;12.43;3.90;;;;;;;;;;4995944;28;20608;-66
2022/11/03 04:00:21;;;;;;;3.35;3.08;;;;;;;;;;4995704;28;20188;-67
2022/11/03 04:02:48;;;;;;;3.10;2.80;;;;;;;;;;4995795;28;20286;-67
2022/11/03 04:05:15;;;;;;;13.65;3.80;;;;;;;;;;4995662;28;20192;-67
2022/11/03 04:07:48;;;;;;;4.78;2.95;;;;;;;;;;4995581;28;20195;-67
2022/11/03 04:10:18;;;;;;;6.15;3.13;;;;;;;;;;4995831;28;20598;-69
2022/11/03 04:23:42;;;;;;;8.57;4.18;;;;;;;;;;4973179;28;20195;-67
2022/11/03 04:26:13;;;;;;;9.27;3.30;;;;;;;;;;4995369;28;20196;-67
2022/11/03 04:28:41;;;;;;;5.53;3.72;;;;;;;;;;4995308;28;20196;-67
2022/11/03 04:31:11;;;;;;;9.48;4.20;;;;;;;;;;4995306;28;20563;-67
2022/11/03 04:33:38;;;;;;;7.43;3.97;;;;;;;;;;4995269;28;20714;-68
2022/11/03 04:36:10;;;;;;;5.93;4.32;;;;;;;;;;4995190;28;20207;-68
2022/11/03 04:38:37;;;;;;;5.70;4.60;;;;;;;;;;4995064;28;20197;-68
2022/11/03 04:41:07;;;;;;;4.25;3.85;;;;;;;;;;4994827;28;20219;-67
2022/11/03 04:43:37;;;;;;;6.78;4.53;;;;;;;;;;4994948;28;20228;-68
2022/11/03 04:46:05;;;;;;;9.23;4.45;;;;;;;;;;4995079;28;20607;-67
2022/11/03 04:48:34;;;;;;;6.80;3.97;;;;;;;;;;4994899;28;20192;-67
2022/11/03 04:51:03;;;;;;;8.35;4.25;;;;;;;;;;4994877;28;20286;-67
2022/11/03 04:53:33;;;;;;;7.38;4.15;;;;;;;;;;4994686;28;20205;-68
2022/11/03 04:56:00;;;;;;;10.52;3.60;;;;;;;;;;4994925;28;20196;-67
2022/11/03 04:58:29;;;;;;;6.20;4.50;;;;;;;;;;4994769;28;20189;-67
2022/11/03 05:00:59;;;;;;;5.03;3.58;;;;;;;;;;4994562;28;20215;-67
2022/11/03 05:03:27;;;;;;;4.90;3.30;;;;;;;;;;4994586;28;20198;-68
2022/11/03 05:05:54;;;;;;;3.33;2.85;;;;;;;;;;4994591;28;20248;-67
2022/11/03 05:08:22;;;;;;;10.45;4.45;;;;;;;;;;4994356;28;20195;-67
2022/11/03 05:10:49;;;;;;;7.47;4.75;;;;;;;;;;4994241;28;20243;-67
2022/11/03 05:13:19;;;;;;;4.20;3.80;;;;;;;;;;4994529;28;20192;-68
2022/11/03 05:15:48;;;;;;;7.30;4.15;;;;;;;;;;4994451;28;20564;-67
2022/11/03 05:18:19;;;;;;;4.05;3.50;;;;;;;;;;4994363;28;20196;-67
2022/11/03 05:20:48;;;;;;;7.63;3.97;;;;;;;;;;4994153;28;20216;-67
2022/11/03 05:23:15;;;;;;;6.13;3.65;;;;;;;;;;4994308;28;20223;-68
2022/11/03 05:25:43;;;;;;;4.47;3.20;;;;;;;;;;4994134;28;20219;-68
2022/11/03 05:28:20;;;;;;;5.75;3.38;;;;;;;;;;4994254;28;20227;-68
2022/11/03 05:30:48;;;;;;;4.10;3.50;;;;;;;;;;4993971;28;20199;-68
2022/11/03 05:33:19;;;;;;;5.60;3.35;;;;;;;;;;4993852;28;20196;-66
2022/11/03 05:35:46;;;;;;;6.13;3.20;;;;;;;;;;4994233;28;20664;-67
2022/11/03 05:38:15;;;;;;;3.25;2.97;;;;;;;;;;4994154;28;20192;-67
2022/11/03 05:40:42;;;;;;;4.40;3.10;;;;;;;;;;4993978;28;20196;-67
2022/11/03 05:43:11;;;;;;;3.70;2.70;;;;;;;;;;4993700;28;20529;-67
2022/11/03 05:45:38;;;;;;;4.25;3.40;;;;;;;;;;4993864;28;20202;-68
2022/11/03 05:48:12;;;;;;;3.90;3.08;;;;;;;;;;4993930;28;20224;-67
2022/11/03 05:50:41;;;;;;;9.43;3.67;;;;;;;;;;4993962;28;20281;-68
2022/11/03 05:53:15;;;;;;;6.03;3.55;;;;;;;;;;4993723;28;20204;-67
2022/11/03 05:55:43;;;;;;;7.40;3.22;;;;;;;;;;4993679;28;20227;-68
2022/11/03 05:58:15;;;;;;;6.63;3.83;;;;;;;;;;4993509;28;20650;-68
2022/11/03 06:00:43;;;;;;;10.77;3.90;;;;;;;;;;4993843;28;20474;-68
2022/11/03 06:03:12;;;;;;;4.18;2.88;;;;;;;;;;4993739;28;20200;-68
2022/11/03 06:05:41;;;;;;;5.75;3.55;;;;;;;;;;4993888;28;20192;-68
2022/11/03 06:08:13;;;;;;;5.35;3.60;;;;;;;;;;4993539;28;20230;-68
2022/11/03 06:10:42;;;;;;;4.03;3.05;;;;;;;;;;4993406;28;20192;-68
2022/11/03 06:13:14;;;;;;;5.60;3.30;;;;;;;;;;4993681;28;20192;-68
2022/11/03 06:15:42;;;;;;;9.05;4.22;;;;;;;;;;4993622;28;20611;-67
2022/11/03 06:18:13;;;;;;;11.77;3.33;;;;;;;;;;4993531;28;20529;-68
2022/11/03 06:20:42;;;;;;;5.78;3.58;;;;;;;;;;4993416;28;20563;-67
2022/11/03 06:23:10;;;;;;;9.02;3.78;;;;;;;;;;4993286;28;20215;-67
2022/11/03 06:25:37;;;;;;;4.15;3.17;;;;;;;;;;4993393;28;20227;-68
2022/11/03 06:28:05;;;;;;;7.72;3.58;;;;;;;;;;4993277;28;20674;-67
2022/11/03 06:30:33;;;;;;;6.25;2.67;;;;;;;;;;4993464;28;20231;-67
2022/11/03 06:33:02;;;;;;;4.30;2.85;;;;;;;;;;4993309;28;20242;-68
2022/11/03 06:35:29;;;;;;;5.00;3.55;;;;;;;;;;4993273;28;20192;-68
2022/11/03 06:37:59;;;;;;;5.70;4.15;;;;;;;;;;4993542;28;20247;-68
2022/11/03 06:40:36;;;;;;;7.47;4.03;;;;;;;;;;4997365;28;20652;-68
2022/11/03 06:43:11;;;;;;;17.65;7.80;;;;;;;;;;4997026;28;20220;-68
2022/11/03 06:45:38;;;;;;;14.20;8.00;;;;;;;;;;4997139;28;20203;-68
2022/11/03 06:48:06;;;;;;;10.85;7.35;;;;;;;;;;4996918;28;20607;-68
2022/11/03 06:50:33;;;;;;;14.95;5.45;;;;;;;;;;4996953;28;20246;-67
2022/11/03 06:53:03;;;;;;;14.80;6.30;;;;;;;;;;4997074;28;20247;-67
2022/11/03 06:55:31;;;;;;;9.27;5.65;;;;;;;;;;4996991;28;20202;-67
2022/11/03 06:58:00;;;;;;;6.82;6.07;;;;;;;;;;4996889;28;20226;-67
2022/11/03 07:00:28;;;;;;;7.70;4.78;;;;;;;;;;4996682;28;20196;-66
2022/11/03 07:02:57;;;;;;;5.65;4.18;;;;;;;;;;4996592;28;20259;-66
2022/11/03 07:05:25;;;;;;;11.73;3.97;;;;;;;;;;4996578;28;20202;-68
2022/11/03 07:07:54;;;;;;;7.88;5.13;;;;;;;;;;4996604;28;20200;-67
2022/11/03 07:10:23;;;;;;;10.57;4.25;;;;;;;;;;4996714;28;20651;-68
2022/11/03 07:12:50;;;;;;;4.00;3.60;;;;;;;;;;4996571;28;20200;-67
2022/11/03 07:15:23;;;;;;;5.10;4.10;;;;;;;;;;4996583;28;20238;-68
2022/11/03 07:17:51;;;;;;;8.45;3.78;;;;;;;;;;4996360;28;20282;-67
2022/11/03 07:20:18;;;;;;;7.57;4.60;;;;;;;;;;4996585;28;20533;-67
2022/11/03 07:22:46;;;;;;;8.73;5.25;;;;;;;;;;4996455;28;20224;-68
2022/11/03 07:25:16;;;;;;;9.38;4.68;;;;;;;;;;4996426;28;20652;-68
2022/11/03 07:27:45;;;;;;;8.85;4.63;;;;;;;;;;4996360;28;20200;-66
2022/11/03 07:30:16;;;;;;;6.32;3.80;;;;;;;;;;4996621;28;20246;-67
2022/11/03 07:32:43;;;;;;;3.92;3.63;;;;;;;;;;4996190;28;20192;-68
2022/11/03 07:35:17;;;;;;;6.57;3.88;;;;;;;;;;4996158;28;20199;-68
2022/11/03 07:37:44;;;;;;;5.82;4.50;;;;;;;;;;4996184;28;20199;-67
2022/11/03 07:40:13;;;;;;;6.88;5.38;;;;;;;;;;4996039;28;20227;-68
2022/11/03 07:42:40;;;;;;;6.35;4.70;;;;;;;;;;4996222;28;20227;-68
2022/11/03 07:45:31;;;;;;;9.27;4.43;;;;;;;;;;4995857;28;20630;-68
2022/11/03 07:47:58;;;;;;;4.80;4.30;;;;;;;;;;4996048;28;20192;-67
2022/11/03 07:50:25;;;;;;;4.63;4.07;;;;;;;;;;4995019;28;20462;-66
2022/11/03 07:52:52;;;;;;;5.50;4.83;;;;;;;;;;4995853;28;20541;-67
2022/11/03 07:55:19;;;;;;;3.13;2.87;;;;;;;;;;4995724;28;20451;-67
2022/11/03 07:57:47;;;;;;;6.53;2.97;;;;;;;;;;4995802;28;20513;-68
2022/11/03 08:00:20;;;;;;;4.97;2.70;;;;;;;;;;4995863;28;20460;-67
2022/11/03 08:02:49;;;;;;;3.70;3.10;;;;;;;;;;4995612;28;20483;-67
2022/11/03 08:05:16;;;;;;;6.60;3.30;;;;;;;;;;4995517;28;20490;-67
2022/11/03 08:07:43;;;;;;;4.83;2.80;;;;;;;;;;4995818;28;20451;-67
2022/11/03 08:10:12;;;;;;;7.43;3.33;;;;;;;;;;4995610;28;20459;-67
2022/11/03 08:12:39;;;;;;;9.23;3.93;;;;;;;;;;4995793;28;20442;-67
2022/11/03 08:15:07;;;;;;;3.83;2.55;;;;;;;;;;4995486;28;20497;-68
2022/11/03 08:17:35;;;;;;;4.37;2.57;;;;;;;;;;4995388;28;20203;-67
2022/11/03 08:20:02;;;;;;;4.73;3.23;;;;;;;;;;4995311;28;20541;-67
2022/11/03 08:22:29;;;;;;;2.53;2.20;;;;;;;;;;4995426;28;20494;-68
2022/11/03 08:24:57;;;;;;;3.83;2.80;;;;;;;;;;4995383;28;20457;-67
2022/11/03 08:27:24;;;;;;;7.17;3.13;;;;;;;;;;4995186;28;20451;-67
2022/11/03 08:29:51;;;;;;;7.30;2.33;;;;;;;;;;4995226;28;20447;-67
2022/11/03 08:32:18;;;;;;;5.80;2.40;;;;;;;;;;4995070;28;20858;-67
2022/11/03 08:34:46;;;;;;;2.43;2.23;;;;;;;;;;4995023;28;20454;-67
2022/11/03 08:37:13;;;;;;;10.53;3.20;;;;;;;;;;4995050;28;20503;-67
2022/11/03 08:39:40;;;;;;;8.40;2.97;;;;;;;;;;4994987;28;20459;-65
2022/11/03 08:42:07;;;;;;;6.00;2.53;;;;;;;;;;4994907;28;20471;-67
2022/11/03 08:44:34;;;;;;;5.88;2.97;;;;;;;;;;4994614;28;20482;-67
2022/11/03 08:47:01;;;;;;;4.03;2.13;;;;;;;;;;4994581;28;20270;-67
2022/11/03 08:49:28;;;;;;;7.67;3.07;;;;;;;;;;4994865;28;20451;-67
2022/11/03 08:51:57;;;;;;;8.10;2.80;;;;;;;;;;4994843;28;20796;-66
2022/11/03 08:54:24;;;;;;;6.13;2.30;;;;;;;;;;4994773;28;20911;-67
2022/11/03 08:56:51;;;;;;;5.57;2.90;;;;;;;;;;4994727;28;20819;-67
2022/11/03 08:59:18;;;;;;;6.50;3.53;;;;;;;;;;4994611;28;20451;-67
2022/11/03 09:01:45;;;;;;;3.50;2.60;;;;;;;;;;4994324;28;20493;-66
2022/11/03 09:04:12;;;;;;;5.77;2.90;;;;;;;;;;4994676;28;20460;-67
2022/11/03 09:06:40;;;;;;;7.00;2.60;;;;;;;;;;4994569;28;20541;-67
2022/11/03 09:09:08;;;;;;;6.97;2.70;;;;;;;;;;4994435;28;20455;-67
2022/11/03 09:11:35;;;;;;;4.67;3.30;;;;;;;;;;4994213;28;20513;-67
2022/11/03 09:14:02;;;;;;;3.83;2.37;;;;;;;;;;4994243;28;20451;-67
2022/11/03 09:16:29;;;;;;;4.77;2.73;;;;;;;;;;4994400;28;20866;-67
2022/11/03 09:18:56;;;;;;;5.83;2.70;;;;;;;;;;4994430;28;20538;-67
2022/11/03 09:21:24;;;;;;;6.17;2.20;;;;;;;;;;4994282;28;20866;-67
2022/11/03 09:23:51;;;;;;;5.90;2.40;;;;;;;;;;4994009;28;21005;-67
2022/11/03 09:26:19;;;;;;;6.63;1.90;;;;;;;;;;4994219;28;20559;-67
2022/11/03 09:28:48;;;;;;;4.80;2.20;;;;;;;;;;4994001;28;20822;-67
2022/11/03 09:31:15;;;;;;;7.03;2.17;;;;;;;;;;4993985;28;21014;-67
2022/11/03 09:33:42;;;;;;;3.15;2.45;;;;;;;;;;4994193;28;20459;-67
2022/11/03 09:36:09;;;;;;;10.27;2.17;;;;;;;;;;4993987;28;20196;-67
2022/11/03 09:38:36;;;;;;;4.80;1.60;;;;;;;;;;4994038;28;20600;-67
2022/11/03 09:41:04;;;;;;;6.30;1.90;;;;;;;;;;4993703;28;20455;-68
2022/11/03 09:43:33;;;;;;;8.90;2.90;;;;;;;;;;4993784;28;20497;-67
2022/11/03 09:46:00;;;;;;;2.10;1.80;;;;;;;;;;4993942;28;20459;-67
2022/11/03 09:48:27;;;;;;;2.47;2.00;;;;;;;;;;4993898;28;20455;-67
2022/11/03 09:50:55;;;;;;;5.73;2.17;;;;;;;;;;4993655;28;20454;-67
2022/11/03 09:53:22;;;;;;;4.43;3.10;;;;;;;;;;4993722;28;20942;-68
2022/11/03 09:55:49;;;;;;;4.45;1.85;;;;;;;;;;4993582;28;20503;-66
2022/11/03 09:58:17;;;;;;;5.57;2.40;;;;;;;;;;4993500;28;20648;-66
2022/11/03 10:00:46;;;;;;;5.10;1.98;;;;;;;;;;4993721;28;20455;-66
2022/11/03 10:03:14;;;;;;;4.90;1.70;;;;;;;;;;4993715;28;20216;-65
2022/11/03 10:05:42;;;;;;;3.88;2.00;;;;;;;;;;4993564;28;20495;-68
2022/11/03 10:08:13;;;;;;;8.57;2.20;;;;;;;;;;4993480;28;20269;-66
2022/11/03 10:10:40;;;;;;;5.40;1.97;;;;;;;;;;4993425;28;20451;-66
2022/11/03 10:13:11;;;;;;;2.90;2.17;;;;;;;;;;4992893;28;20466;-66
2022/11/03 10:15:38;;;;;;;7.38;2.10;;;;;;;;;;4993330;28;20455;-67
2022/11/03 10:18:08;;;;;;;3.83;2.37;;;;;;;;;;4993520;28;20199;-67
2022/11/03 10:20:35;;;;;;;5.70;1.92;;;;;;;;;;4993211;28;20459;-66
2022/11/03 10:23:02;;;;;;;7.00;1.63;;;;;;;;;;4992961;28;20600;-62
2022/11/03 10:25:30;;;;;;;6.10;1.70;;;;;;;;;;4993435;28;20231;-64
2022/11/03 10:28:14;;;;;;;5.10;2.00;;;;;;;;;;4993294;28;20455;-63
2022/11/03 10:30:48;;;;;;;3.67;1.70;;;;;;;;;;4993261;28;20451;-64
2022/11/03 10:33:27;;;;;;;2.93;1.50;;;;;;;;;;4993235;28;20453;-63
2022/11/03 10:35:56;;;;;;;7.93;3.13;;;;;;;;;;4993364;28;20450;-74
2022/11/03 10:38:27;;;;;;;4.60;1.77;;;;;;;;;;4993415;28;20461;-68
2022/11/03 10:40:55;;;;;;;3.27;1.70;;;;;;;;;;4993290;28;20562;-70
2022/11/03 10:43:22;;;;;;;5.57;1.90;;;;;;;;;;4993060;28;20494;-77
2022/11/03 10:45:54;;;;;;;5.40;2.43;;;;;;;;;;4993433;28;20454;-81
2022/11/03 10:48:25;;;;;;;3.80;1.90;;;;;;;;;;4993404;28;21061;-70
2022/11/03 10:50:53;;;;;;;3.67;1.40;;;;;;;;;;4997840;28;20457;-66
2022/11/03 10:53:20;;;;;;;4.60;1.97;;;;;;;;;;5012299;28;20989;-65
2022/11/03 10:55:48;;;;;;;7.10;3.50;;;;;;;;;;5012626;28;20910;-70
2022/11/03 10:58:15;;;;;;;5.77;2.00;;;;;;;;;;5011995;28;20452;-75
2022/11/03 11:00:42;;;;;;;4.13;2.07;;;;;;;;;;5012606;28;20458;-76
2022/11/03 11:03:12;;;;;;;6.73;2.20;;;;;;;;;;5012275;28;20481;-65
2022/11/03 11:05:45;;;;;;;2.25;1.92;;;;;;;;;;5012425;28;20450;-75
2022/11/03 11:08:14;;;;;;;4.50;1.93;;;;;;;;;;5012832;28;20198;-62
2022/11/03 11:10:44;;;;;;;2.10;1.60;;;;;;;;;;5012125;28;20938;-62
2022/11/03 11:13:24;;;;;;;5.37;1.87;;;;;;;;;;5012176;28;20442;-63
2022/11/03 11:15:52;;;;;;;5.30;1.70;;;;;;;;;;5012437;28;20442;-63
2022/11/03 11:18:43;;;;;;;6.93;1.87;;;;;;;;;;5012520;28;20446;-63
2022/11/03 11:21:25;;;;;;;2.63;2.20;;;;;;;;;;5011154;28;20537;-62
2022/11/03 11:23:54;;;;;;;4.40;2.10;;;;;;;;;;5011847;28;20485;-62
2022/11/03 11:26:32;;;;;;;4.80;2.00;;;;;;;;;;5016170;28;20464;-62
2022/11/03 11:29:19;;;;;;;6.53;2.03;;;;;;;;;;5016211;28;20527;-66
2022/11/03 11:31:46;;;;;;;2.73;1.70;;;;;;;;;;5015988;28;20450;-66
2022/11/03 11:34:32;;;;;;;4.50;1.90;;;;;;;;;;5015320;28;20450;-70
2022/11/03 11:37:17;;;;;;;4.73;2.20;;;;;;;;;;5014628;28;20576;-69
2022/11/03 11:39:45;;;;;;;4.70;2.80;;;;;;;;;;5012230;28;20957;-68
2022/11/03 11:42:13;;;;;;;3.10;1.90;;;;;;;;;;5016147;28;20430;-69
2022/11/03 11:44:50;;;;;;;3.20;1.63;;;;;;;;;;5015292;28;20540;-68
2022/11/03 11:47:24;;;;;;;5.83;2.27;;;;;;;;;;5015602;28;20446;-68
2022/11/03 11:50:01;;;;;;;4.50;1.97;;;;;;;;;;5015492;28;20504;-70
2022/11/03 11:52:28;;;;;;;10.10;2.70;;;;;;;;;;5014585;28;20474;-66
2022/11/03 11:54:56;;;;;;;6.55;2.35;;;;;;;;;;5014761;28;20525;-67
2022/11/03 11:57:24;;;;;;;2.90;1.90;;;;;;;;;;5015516;28;20655;-67
2022/11/03 11:59:52;;;;;;;4.63;1.77;;;;;;;;;;5015374;28;20528;-65
2022/11/03 12:02:20;;;;;;;4.33;2.50;;;;;;;;;;5015288;28;20459;-65
2022/11/03 12:04:47;;;;;;;5.00;2.00;;;;;;;;;;5015032;28;20508;-65
2022/11/03 12:07:14;;;;;;;4.37;2.03;;;;;;;;;;5015420;28;20486;-69
2022/11/03 12:09:42;;;;;;;5.57;2.17;;;;;;;;;;5014870;28;20950;-71
2022/11/03 12:12:10;;;;;;;2.60;2.00;;;;;;;;;;5014673;28;20504;-64
2022/11/03 12:14:38;;;;;;;8.88;2.50;;;;;;;;;;5015035;28;20458;-60
2022/11/03 12:17:23;;;;;;;4.90;2.40;;;;;;;;;;5015097;28;20274;-77
2022/11/03 12:19:51;;;;;;;4.60;2.30;;;;;;;;;;5014492;28;20556;-71
2022/11/03 12:22:33;;;;;;;5.28;1.83;;;;;;;;;;5014753;28;20450;-74
2022/11/03 12:25:01;;;;;;;3.83;1.70;;;;;;;;;;5012532;28;20714;-76
2022/11/03 12:27:42;;;;;;;4.90;2.50;;;;;;;;;;5014859;28;20490;-72
2022/11/03 12:30:13;;;;;;;5.53;1.87;;;;;;;;;;5014353;28;20441;-62
2022/11/03 12:32:40;;;;;;;8.30;2.10;;;;;;;;;;5014009;28;20452;-64
2022/11/03 12:35:09;;;;;;;2.20;1.57;;;;;;;;;;5014414;28;20457;-64
2022/11/03 12:37:36;;;;;;;3.83;1.87;;;;;;;;;;5014071;28;20802;-62
2022/11/03 12:40:03;;;;;;;6.30;1.67;;;;;;;;;;5014482;28;20477;-63
2022/11/03 12:42:30;;;;;;;3.70;2.00;;;;;;;;;;5014151;28;20542;-60
2022/11/03 12:44:58;;;;;;;3.63;1.80;;;;;;;;;;5014156;28;20828;-61
2022/11/03 12:47:25;;;;;;;7.23;3.00;;;;;;;;;;5014192;28;20549;-63
2022/11/03 12:49:52;;;;;;;3.20;1.97;;;;;;;;;;5014327;28;20477;-65
2022/11/03 12:52:20;;;;;;;3.00;2.70;;;;;;;;;;5014323;28;20553;-64
2022/11/03 12:54:47;;;;;;;2.43;2.00;;;;;;;;;;5014176;28;20964;-62
2022/11/03 12:57:14;;;;;;;2.37;2.17;;;;;;;;;;5013770;28;20451;-65
2022/11/03 12:59:41;;;;;;;7.10;3.70;;;;;;;;;;5014245;28;20488;-66
2022/11/03 13:02:11;;;;;;;2.33;1.50;;;;;;;;;;5014032;28;20549;-62
2022/11/03 13:04:38;;;;;;;3.60;2.17;;;;;;;;;;5013681;28;20532;-65
2022/11/03 13:07:05;;;;;;;6.00;2.40;;;;;;;;;;5014090;28;20454;-63
2022/11/03 13:09:34;;;;;;;6.00;2.43;;;;;;;;;;5013836;28;20454;-63
2022/11/03 13:14:46;;;;;;;5.70;2.20;;;;;;;;;;5013940;28;20445;-64
2022/11/03 13:17:14;;;;;;;2.13;1.93;;;;;;;;;;5013830;28;20465;-61
2022/11/03 13:19:41;;;;;;;3.40;2.17;;;;;;;;;;5013806;28;20450;-64
2022/11/03 13:22:08;;;;;;;3.73;2.10;;;;;;;;;;5013914;28;20946;-68
2022/11/03 13:24:35;;;;;;;2.10;1.77;;;;;;;;;;5013587;28;20486;-64
2022/11/03 13:27:02;;;;;;;4.57;2.37;;;;;;;;;;5013680;28;20520;-69
2022/11/03 13:29:29;;;;;;;4.93;1.87;;;;;;;;;;5013713;28;20519;-71
2022/11/03 13:31:56;;;;;;;6.43;2.20;;;;;;;;;;5013737;28;20461;-70
2022/11/03 13:34:25;;;;;;;3.17;2.03;;;;;;;;;;5013416;28;20880;-76
2022/11/03 13:36:52;;;;;;;7.90;3.33;;;;;;;;;;5013603;28;20458;-66
2022/11/03 13:39:20;;;;;;;3.73;1.80;;;;;;;;;;5013613;28;20537;-64
2022/11/03 13:41:47;;;;;;;3.93;2.00;;;;;;;;;;5012948;28;20443;-67
2022/11/03 13:44:14;;;;;;;5.43;2.47;;;;;;;;;;5012574;28;20489;-66
2022/11/03 13:46:42;;;;;;;8.50;2.30;;;;;;;;;;5013225;28;20457;-68
2022/11/03 13:49:09;;;;;;;4.90;2.53;;;;;;;;;;5013327;28;20450;-72
2022/11/03 13:51:37;;;;;;;12.63;4.13;;;;;;;;;;5013549;28;20504;-71
2022/11/03 13:54:04;;;;;;;5.10;2.60;;;;;;;;;;5013549;28;20461;-61
2022/11/03 13:56:31;;;;;;;3.90;2.53;;;;;;;;;;5013367;28;20857;-60
2022/11/03 13:58:58;;;;;;;9.43;2.73;;;;;;;;;;5013115;28;20493;-64
2022/11/03 14:01:25;;;;;;;4.37;2.57;;;;;;;;;;5013250;28;20561;-65
2022/11/03 14:03:52;;;;;;;4.70;2.50;;;;;;;;;;5013161;28;20806;-65
2022/11/03 14:06:19;;;;;;;3.17;2.13;;;;;;;;;;5013383;28;20457;-64
2022/11/03 14:08:48;;;;;;;4.87;2.43;;;;;;;;;;5013153;28;20965;-64
2022/11/03 14:14:00;;;;;;;4.37;2.70;;;;;;;;;;5013078;28;20492;-64
2022/11/03 14:16:27;;;;;;;3.33;2.40;;;;;;;;;;5012965;28;20457;-64
2022/11/03 14:18:54;;;;;;;4.65;2.83;;;;;;;;;;5013139;28;20446;-65
2022/11/03 14:21:21;;;;;;;6.20;2.57;;;;;;;;;;5013171;28;20199;-65
2022/11/03 14:23:49;;;;;;;4.10;2.10;;;;;;;;;;5012794;28;20501;-65
2022/11/03 14:26:17;;;;;;;6.53;3.47;;;;;;;;;;5012885;28;20482;-65
2022/11/03 14:28:44;;;;;;;5.50;2.50;;;;;;;;;;5012776;28;20943;-65
2022/11/03 14:31:11;;;;;;;6.10;2.50;;;;;;;;;;5012726;28;20516;-65
2022/11/03 14:33:38;;;;;;;5.70;3.00;;;;;;;;;;5012975;28;20862;-65
2022/11/03 14:36:05;;;;;;;11.03;3.13;;;;;;;;;;5012824;28;20949;-65
2022/11/03 14:38:32;;;;;;;8.20;3.40;;;;;;;;;;5012842;28;20481;-65
2022/11/03 14:43:41;;;;;;;5.00;3.20;;;;;;;;;;5000536;28;20481;-65
2022/11/03 14:46:08;;;;;;;4.57;3.07;;;;;;;;;;5012862;28;20857;-65
2022/11/03 14:48:35;;;;;;;6.05;3.70;;;;;;;;;;5012689;28;20461;-65
2022/11/03 14:51:02;;;;;;;5.57;2.57;;;;;;;;;;5012724;28;20200;-65
2022/11/03 14:53:30;;;;;;;3.70;2.60;;;;;;;;;;5012729;28;20489;-65
2022/11/03 14:55:57;;;;;;;3.93;2.50;;;;;;;;;;5012607;28;20476;-65
2022/11/03 14:58:28;;;;;;;6.03;3.57;;;;;;;;;;5012849;28;20524;-65
2022/11/03 15:00:55;;;;;;;7.77;3.50;;;;;;;;;;5016306;28;20461;-65
2022/11/03 15:03:22;;;;;;;5.33;2.50;;;;;;;;;;5016423;28;20453;-65
2022/11/03 15:05:53;;;;;;;5.87;3.33;;;;;;;;;;5016308;28;20490;-65
2022/11/03 15:08:20;;;;;;;5.70;2.50;;;;;;;;;;5016271;28;20972;-64
2022/11/03 15:10:47;;;;;;;7.63;3.30;;;;;;;;;;5016496;28;20858;-65
2022/11/03 15:13:14;;;;;;;6.40;2.70;;;;;;;;;;5016420;28;20504;-64
2022/11/03 15:15:43;;;;;;;4.13;3.60;;;;;;;;;;5016212;28;20450;-65